Time;durP1;ratioP1;P1;durP2;ratioP2;P2;SDS_P1;SDS_P2;PMS_P1;PMS_P2;Temp;Humidity;BMP_temperature;BMP_pressure;BME280_temperature;BME280_humidity;BME280_pressure;Samples;Min_cycle;Max_cycle;Signal;HPM_P1;HPM_P2
2022/06/20 00:01:22;;;;;;;3.83;1.80;;;;;;;;;;5110848;28;20024;-71
2022/06/20 00:04:00;;;;;;;3.53;1.63;;;;;;;;;;5111507;27;20397;-72
2022/06/20 00:06:26;;;;;;;4.60;1.83;;;;;;;;;;5111403;28;20053;-71
2022/06/20 00:08:53;;;;;;;569.55;398.23;;;;;;;;;;5110761;28;20028;-72
2022/06/20 00:11:24;;;;;;;541.97;238.45;;;;;;;;;;5111416;28;20019;-72
2022/06/20 00:15:56;;;;;;;627.90;527.03;;;;;;;;;;5111027;27;20396;-72
2022/06/20 00:19:27;;;;;;;4.40;1.88;;;;;;;;;;5111320;27;20382;-71
2022/06/20 00:22:43;;;;;;;120.80;107.75;;;;;;;;;;5110991;27;20392;-71
2022/06/20 00:25:09;;;;;;;863.70;663.40;;;;;;;;;;5111409;28;20024;-71
2022/06/20 00:29:29;;;;;;;2.60;1.70;;;;;;;;;;5111195;27;20985;-71
2022/06/20 00:31:55;;;;;;;4.03;1.90;;;;;;;;;;5111313;28;20024;-71
2022/06/20 00:34:21;;;;;;;3.92;2.03;;;;;;;;;;5111175;28;20069;-71
2022/06/20 00:36:49;;;;;;;4.13;2.40;;;;;;;;;;5110764;28;20031;-71
2022/06/20 00:39:15;;;;;;;742.33;662.65;;;;;;;;;;5111071;28;20027;-71
2022/06/20 00:42:56;;;;;;;731.08;661.22;;;;;;;;;;5111143;27;20385;-71
2022/06/20 00:45:24;;;;;;;661.20;578.60;;;;;;;;;;5109897;28;20028;-71
2022/06/20 00:49:30;;;;;;;5.00;2.20;;;;;;;;;;5110982;27;20393;-73
2022/06/20 00:52:53;;;;;;;3.05;1.90;;;;;;;;;;5111946;27;20384;-71
2022/06/20 00:57:31;;;;;;;2.33;1.80;;;;;;;;;;5152240;27;20103;-71
2022/06/20 01:03:04;;;;;;;810.53;621.20;;;;;;;;;;5111270;27;20988;-71
2022/06/20 01:05:50;;;;;;;3.80;2.30;;;;;;;;;;5111653;27;20537;-71
2022/06/20 01:10:09;;;;;;;3.05;1.98;;;;;;;;;;5111602;27;20400;-71
2022/06/20 01:12:41;;;;;;;3.00;1.70;;;;;;;;;;5110875;28;20027;-73
2022/06/20 01:15:37;;;;;;;550.07;493.83;;;;;;;;;;5111660;28;20389;-73
2022/06/20 01:19:29;;;;;;;107.30;97.40;;;;;;;;;;5110927;27;20113;-71
2022/06/20 01:25:33;;;;;;;471.42;343.27;;;;;;;;;;5110942;27;20458;-72
2022/06/20 01:28:11;;;;;;;3.20;1.85;;;;;;;;;;5111589;27;20835;-73
2022/06/20 01:30:40;;;;;;;126.90;117.82;;;;;;;;;;5111206;28;20024;-72
2022/06/20 01:33:32;;;;;;;3.63;2.15;;;;;;;;;;5111008;27;20839;-72
2022/06/20 01:39:02;;;;;;;3.70;1.90;;;;;;;;;;5111370;27;20843;-71
2022/06/20 01:42:23;;;;;;;3.00;1.90;;;;;;;;;;5111999;27;20908;-71
2022/06/20 01:44:32;;;;;;;3.85;1.98;;;;;;;;;;5108014;28;20080;-71
2022/06/20 01:49:09;;;;;;;4.93;2.03;;;;;;;;;;5111531;27;20473;-72
2022/06/20 01:51:47;;;;;;;766.40;607.55;;;;;;;;;;5111170;28;20028;-71
2022/06/20 01:55:21;;;;;;;747.30;613.05;;;;;;;;;;5111541;27;20842;-71
2022/06/20 01:57:48;;;;;;;4.72;1.92;;;;;;;;;;5111228;28;20515;-71
2022/06/20 02:01:10;;;;;;;928.15;678.85;;;;;;;;;;5111090;27;20418;-71
2022/06/20 02:03:40;;;;;;;988.17;615.65;;;;;;;;;;5111232;28;20032;-71
2022/06/20 02:06:08;;;;;;;975.85;606.92;;;;;;;;;;5111217;28;20024;-71
2022/06/20 02:10:14;;;;;;;857.25;598.45;;;;;;;;;;5112051;27;20981;-71
2022/06/20 02:13:21;;;;;;;764.13;573.65;;;;;;;;;;5111468;27;20381;-71
2022/06/20 02:15:48;;;;;;;709.95;537.30;;;;;;;;;;5110851;28;20058;-71
2022/06/20 02:18:15;;;;;;;706.10;536.42;;;;;;;;;;5109925;28;20043;-71
2022/06/20 02:21:50;;;;;;;757.38;527.80;;;;;;;;;;5111257;27;20397;-71
2022/06/20 02:27:28;;;;;;;759.72;580.78;;;;;;;;;;5111882;27;20632;-71
2022/06/20 02:29:54;;;;;;;622.20;538.75;;;;;;;;;;5110937;28;20024;-71
2022/06/20 02:32:30;;;;;;;726.22;550.33;;;;;;;;;;5111208;28;20480;-71
2022/06/20 02:35:43;;;;;;;798.58;549.03;;;;;;;;;;5111384;27;20393;-71
2022/06/20 02:38:10;;;;;;;803.55;538.25;;;;;;;;;;5111267;28;20147;-71
2022/06/20 02:41:40;;;;;;;602.17;522.42;;;;;;;;;;5111697;27;20422;-71
2022/06/20 02:44:08;;;;;;;716.97;548.75;;;;;;;;;;5110822;28;20028;-71
2022/06/20 02:46:35;;;;;;;728.50;544.22;;;;;;;;;;5111345;28;20033;-71
2022/06/20 02:49:02;;;;;;;703.78;543.03;;;;;;;;;;5110787;28;20137;-71
2022/06/20 02:53:18;;;;;;;697.83;526.00;;;;;;;;;;5111679;27;20737;-71
2022/06/20 02:55:46;;;;;;;676.38;525.92;;;;;;;;;;5109985;28;20089;-71
2022/06/20 02:58:14;;;;;;;753.47;546.55;;;;;;;;;;5110779;28;20020;-72
2022/06/20 03:00:44;;;;;;;688.63;559.55;;;;;;;;;;5111470;28;20020;-71
2022/06/20 03:04:34;;;;;;;757.88;546.40;;;;;;;;;;5111025;27;20393;-71
2022/06/20 03:07:02;;;;;;;763.67;560.28;;;;;;;;;;5111383;28;20473;-71
2022/06/20 03:09:30;;;;;;;756.38;571.33;;;;;;;;;;5111119;28;20024;-71
2022/06/20 03:11:56;;;;;;;747.00;566.72;;;;;;;;;;5110756;28;20024;-71
2022/06/20 03:18:16;;;;;;;772.45;554.22;;;;;;;;;;5111211;27;20418;-71
2022/06/20 03:21:38;;;;;;;770.90;537.75;;;;;;;;;;5111348;27;20574;-71
2022/06/20 03:27:27;;;;;;;720.00;521.33;;;;;;;;;;5111653;27;20384;-71
2022/06/20 03:29:54;;;;;;;754.70;527.65;;;;;;;;;;5111298;28;20032;-71
2022/06/20 03:32:24;;;;;;;791.33;558.25;;;;;;;;;;5110766;28;20020;-71
2022/06/20 03:38:23;;;;;;;808.03;552.72;;;;;;;;;;5111342;27;20485;-71
2022/06/20 03:40:49;;;;;;;848.20;564.97;;;;;;;;;;5111307;28;20027;-71
2022/06/20 03:43:17;;;;;;;791.35;543.95;;;;;;;;;;5111175;28;20031;-70
2022/06/20 03:45:46;;;;;;;799.00;524.75;;;;;;;;;;5110718;28;20027;-71
2022/06/20 03:48:15;;;;;;;879.20;544.17;;;;;;;;;;5111599;28;20020;-71
2022/06/20 03:50:54;;;;;;;794.10;521.38;;;;;;;;;;5111051;28;20024;-71
2022/06/20 03:53:22;;;;;;;863.85;555.55;;;;;;;;;;5109315;28;20028;-71
2022/06/20 03:57:07;;;;;;;891.90;554.80;;;;;;;;;;5112025;27;20388;-71
2022/06/20 03:59:33;;;;;;;913.58;596.53;;;;;;;;;;5111136;28;20032;-70
2022/06/20 04:02:05;;;;;;;925.38;590.75;;;;;;;;;;5111221;28;20430;-70
2022/06/20 04:04:35;;;;;;;1004.65;590.20;;;;;;;;;;5111262;28;20352;-70
2022/06/20 04:07:03;;;;;;;961.30;603.95;;;;;;;;;;5110686;28;20097;-70
2022/06/20 04:12:02;;;;;;;874.55;564.28;;;;;;;;;;5112137;27;20396;-71
2022/06/20 04:16:19;;;;;;;801.17;592.80;;;;;;;;;;5111437;27;20127;-70
2022/06/20 04:18:51;;;;;;;923.83;573.42;;;;;;;;;;5091080;28;20093;-70
2022/06/20 04:21:24;;;;;;;1069.73;581.40;;;;;;;;;;5090782;28;20028;-71
2022/06/20 04:23:53;;;;;;;1060.30;582.08;;;;;;;;;;5091090;28;20104;-71
2022/06/20 04:27:42;;;;;;;982.60;557.13;;;;;;;;;;5111181;27;20384;-71
2022/06/20 04:30:11;;;;;;;1086.22;555.03;;;;;;;;;;5111044;28;20055;-71
2022/06/20 04:35:24;;;;;;;785.88;574.95;;;;;;;;;;5110964;27;20389;-70
2022/06/20 04:40:05;;;;;;;1083.68;588.60;;;;;;;;;;5051198;28;20401;-70
2022/06/20 04:42:39;;;;;;;1117.13;577.97;;;;;;;;;;5050329;28;20057;-70
2022/06/20 04:45:12;;;;;;;1128.22;605.22;;;;;;;;;;5049360;28;20490;-70
2022/06/20 04:48:41;;;;;;;1048.20;611.70;;;;;;;;;;5111390;27;20422;-70
2022/06/20 04:52:14;;;;;;;961.90;573.15;;;;;;;;;;5111581;27;20423;-70
2022/06/20 04:54:41;;;;;;;1077.05;627.88;;;;;;;;;;5111267;28;20028;-71
2022/06/20 04:57:10;;;;;;;1039.00;617.53;;;;;;;;;;5110931;28;20027;-70
2022/06/20 04:59:37;;;;;;;1056.40;603.80;;;;;;;;;;5110096;28;20024;-71
2022/06/20 05:02:23;;;;;;;973.78;624.38;;;;;;;;;;5111215;27;20468;-72
2022/06/20 05:04:50;;;;;;;1053.00;605.60;;;;;;;;;;5091239;28;20028;-73
2022/06/20 05:07:28;;;;;;;1087.10;577.25;;;;;;;;;;5090855;28;20020;-73
2022/06/20 05:10:02;;;;;;;1115.18;577.80;;;;;;;;;;5090336;28;20388;-73
2022/06/20 05:12:38;;;;;;;1116.28;582.45;;;;;;;;;;5091235;28;20103;-73
2022/06/20 05:15:08;;;;;;;1115.32;584.65;;;;;;;;;;5091237;28;20043;-72
2022/06/20 05:17:35;;;;;;;1049.05;585.08;;;;;;;;;;5090114;28;20441;-73
2022/06/20 05:20:06;;;;;;;1055.40;561.78;;;;;;;;;;5088125;28;20027;-73
2022/06/20 05:23:34;;;;;;;1062.85;588.15;;;;;;;;;;5112005;27;20469;-73
2022/06/20 05:27:33;;;;;;;1110.93;581.72;;;;;;;;;;5111214;27;20466;-73
2022/06/20 05:30:04;;;;;;;1115.70;583.38;;;;;;;;;;5111042;28;20491;-74
2022/06/20 05:32:36;;;;;;;1116.80;575.45;;;;;;;;;;5110689;28;20016;-74
2022/06/20 05:37:41;;;;;;;1126.07;573.90;;;;;;;;;;5131259;27;20308;-73
2022/06/20 05:43:23;;;;;;;1136.95;554.83;;;;;;;;;;5111465;27;20397;-76
2022/06/20 05:45:59;;;;;;;1121.75;573.33;;;;;;;;;;5110766;28;20099;-73
2022/06/20 05:50:30;;;;;;;1120.57;569.95;;;;;;;;;;5111117;27;20105;-75
2022/06/20 05:52:57;;;;;;;1120.80;587.40;;;;;;;;;;5085730;28;20069;-76
2022/06/20 05:56:54;;;;;;;1122.63;573.25;;;;;;;;;;5111062;27;20989;-70
2022/06/20 05:59:26;;;;;;;1136.53;564.20;;;;;;;;;;5110662;28;20020;-71
2022/06/20 06:01:53;;;;;;;1134.47;568.13;;;;;;;;;;5110937;28;20062;-71
2022/06/20 06:04:27;;;;;;;1125.75;583.75;;;;;;;;;;5110820;28;20031;-71
2022/06/20 06:09:40;;;;;;;1118.55;587.38;;;;;;;;;;5111095;27;20449;-70
2022/06/20 06:12:38;;;;;;;1115.47;596.60;;;;;;;;;;5128812;27;20399;-71
2022/06/20 06:15:13;;;;;;;1075.72;589.85;;;;;;;;;;5119405;28;20028;-70
2022/06/20 06:21:28;;;;;;;1129.88;609.20;;;;;;;;;;5097310;27;20575;-71
2022/06/20 06:23:54;;;;;;;1031.40;589.25;;;;;;;;;;5073797;28;20020;-72
2022/06/20 06:26:21;;;;;;;1136.78;593.85;;;;;;;;;;5087806;28;20530;-72
2022/06/20 06:28:49;;;;;;;1128.70;619.67;;;;;;;;;;5085425;28;20052;-71
2022/06/20 06:31:37;;;;;;;1118.55;600.63;;;;;;;;;;5079329;28;20115;-72
2022/06/20 06:34:05;;;;;;;1071.65;623.83;;;;;;;;;;5086699;28;20017;-71
2022/06/20 06:37:38;;;;;;;1107.43;596.40;;;;;;;;;;5107717;27;20389;-70
2022/06/20 06:40:35;;;;;;;972.25;636.20;;;;;;;;;;5104911;27;20400;-70
2022/06/20 06:43:10;;;;;;;972.55;645.67;;;;;;;;;;5090170;28;20415;-71
2022/06/20 06:45:36;;;;;;;987.00;604.83;;;;;;;;;;5106838;28;20081;-71
2022/06/20 06:49:21;;;;;;;1035.93;640.47;;;;;;;;;;5108961;27;20397;-70
2022/06/20 06:51:58;;;;;;;1084.20;612.00;;;;;;;;;;5090948;27;20012;-72
2022/06/20 06:54:32;;;;;;;1079.32;618.45;;;;;;;;;;5108454;28;21748;-70
2022/06/20 06:59:00;;;;;;;1101.68;632.30;;;;;;;;;;5108953;27;20565;-70
2022/06/20 07:01:30;;;;;;;1099.75;620.67;;;;;;;;;;5094170;28;20025;-70
2022/06/20 07:05:53;;;;;;;1126.80;616.28;;;;;;;;;;5065219;28;20472;-72
2022/06/20 07:08:23;;;;;;;962.55;660.28;;;;;;;;;;5061329;28;20135;-70
2022/06/20 07:10:52;;;;;;;1079.20;643.22;;;;;;;;;;5063106;28;20437;-72
2022/06/20 07:13:37;;;;;;;1072.90;672.65;;;;;;;;;;5066451;28;20021;-69
2022/06/20 07:16:04;;;;;;;1108.88;634.92;;;;;;;;;;5065915;28;20031;-70
2022/06/20 07:19:17;;;;;;;1045.43;668.50;;;;;;;;;;5102293;27;21000;-68
2022/06/20 07:24:16;;;;;;;954.15;682.90;;;;;;;;;;5097651;27;20540;-68
2022/06/20 07:28:39;;;;;;;1050.22;702.42;;;;;;;;;;5095284;27;20440;-70
2022/06/20 07:35:15;;;;;;;943.00;684.03;;;;;;;;;;5090966;27;20398;-70
2022/06/20 07:38:04;;;;;;;961.22;694.88;;;;;;;;;;5091953;28;20018;-68
2022/06/20 07:40:34;;;;;;;1014.17;657.10;;;;;;;;;;5063913;28;20444;-69
2022/06/20 07:43:19;;;;;;;998.22;692.05;;;;;;;;;;5068614;28;20385;-71
2022/06/20 07:45:53;;;;;;;987.17;673.83;;;;;;;;;;5068131;28;20541;-69
2022/06/20 07:48:23;;;;;;;1039.65;664.83;;;;;;;;;;5067339;28;20043;-69
2022/06/20 07:50:49;;;;;;;1024.30;697.00;;;;;;;;;;5067077;28;20047;-71
2022/06/20 07:53:19;;;;;;;1080.85;667.45;;;;;;;;;;5088488;28;20518;-70
2022/06/20 07:55:49;;;;;;;1094.43;673.53;;;;;;;;;;5089488;28;20032;-72
2022/06/20 07:58:21;;;;;;;1064.97;660.80;;;;;;;;;;5088983;28;20039;-72
2022/06/20 08:01:56;;;;;;;1064.55;710.90;;;;;;;;;;5110371;27;20485;-71
2022/06/20 08:04:29;;;;;;;3.05;1.67;;;;;;;;;;5110608;28;20045;-71
2022/06/20 08:08:18;;;;;;;2.67;1.40;;;;;;;;;;5109959;27;20388;-71
2022/06/20 08:10:48;;;;;;;2.15;1.38;;;;;;;;;;5109793;28;20090;-70
2022/06/20 08:13:23;;;;;;;1.60;1.20;;;;;;;;;;5104499;28;20024;-69
2022/06/20 08:15:53;;;;;;;3.90;1.50;;;;;;;;;;5088153;28;20484;-70
2022/06/20 08:20:31;;;;;;;3.22;1.70;;;;;;;;;;5162817;27;20115;-71
2022/06/20 08:23:03;;;;;;;1.88;1.20;;;;;;;;;;5122755;27;20038;-70
2022/06/20 08:27:22;;;;;;;2.20;1.50;;;;;;;;;;5095173;27;20463;-70
2022/06/20 08:29:53;;;;;;;1.75;1.20;;;;;;;;;;5089032;28;20013;-71
2022/06/20 08:32:28;;;;;;;2.40;1.20;;;;;;;;;;5090548;28;20419;-71
2022/06/20 08:38:59;;;;;;;2.35;1.50;;;;;;;;;;5127045;27;20476;-71
2022/06/20 08:41:46;;;;;;;2.47;1.27;;;;;;;;;;5105705;28;20020;-71
2022/06/20 08:44:12;;;;;;;2.42;1.50;;;;;;;;;;5109777;28;20434;-72
2022/06/20 08:46:50;;;;;;;5.00;2.30;;;;;;;;;;5093738;28;20496;-71
2022/06/20 08:49:35;;;;;;;2.05;1.45;;;;;;;;;;5089825;28;20031;-72
2022/06/20 08:52:07;;;;;;;2.95;1.52;;;;;;;;;;5088359;28;20020;-70
2022/06/20 08:54:51;;;;;;;2.78;1.50;;;;;;;;;;5090024;28;20376;-71
2022/06/20 08:57:43;;;;;;;3.35;1.80;;;;;;;;;;5087777;28;20544;-72
2022/06/20 09:00:14;;;;;;;3.53;1.55;;;;;;;;;;5061847;28;20028;-71
2022/06/20 09:02:46;;;;;;;2.08;1.25;;;;;;;;;;5099379;28;20116;-70
2022/06/20 09:05:30;;;;;;;3.40;1.35;;;;;;;;;;5105827;28;20031;-72
2022/06/20 09:08:05;;;;;;;3.25;1.73;;;;;;;;;;5106649;27;20166;-72
2022/06/20 09:10:50;;;;;;;3.45;1.92;;;;;;;;;;5097656;28;20472;-70
2022/06/20 09:13:58;;;;;;;3.08;1.42;;;;;;;;;;5110170;27;20400;-69
2022/06/20 09:16:43;;;;;;;2.75;1.42;;;;;;;;;;5082189;27;1468581;-72
2022/06/20 09:19:39;;;;;;;5.40;1.55;;;;;;;;;;5105864;28;20086;-72
2022/06/20 09:22:12;;;;;;;2.75;1.30;;;;;;;;;;5020538;28;20058;-69
2022/06/20 09:24:44;;;;;;;4.50;1.73;;;;;;;;;;5100748;28;20035;-70
2022/06/20 09:27:12;;;;;;;4.30;1.27;;;;;;;;;;5089004;28;20032;-70
2022/06/20 09:29:38;;;;;;;5.40;1.70;;;;;;;;;;5089686;28;20016;-71
2022/06/20 09:32:43;;;;;;;3.17;1.60;;;;;;;;;;5071938;28;20076;-72
2022/06/20 09:35:55;;;;;;;4.95;1.70;;;;;;;;;;5110320;27;20397;-71
2022/06/20 09:40:30;;;;;;;2.35;1.35;;;;;;;;;;5110422;27;20400;-68
2022/06/20 09:45:00;;;;;;;1.73;1.30;;;;;;;;;;5110169;27;20567;-69
2022/06/20 09:47:39;;;;;;;3.90;1.50;;;;;;;;;;5122327;28;20027;-69
2022/06/20 09:50:40;;;;;;;3.00;1.80;;;;;;;;;;5130892;28;20027;-70
2022/06/20 09:53:25;;;;;;;4.88;1.98;;;;;;;;;;5107781;28;20114;-68
2022/06/20 09:55:53;;;;;;;1.60;1.17;;;;;;;;;;5129628;27;20039;-68
2022/06/20 09:58:23;;;;;;;3.60;1.42;;;;;;;;;;5130577;28;20069;-70
2022/06/20 10:00:57;;;;;;;4.03;1.30;;;;;;;;;;5129329;27;20028;-70
2022/06/20 10:03:42;;;;;;;2.17;1.30;;;;;;;;;;5103930;28;20059;-70
2022/06/20 10:06:22;;;;;;;2.17;1.30;;;;;;;;;;5105182;28;20085;-70
2022/06/20 10:08:51;;;;;;;2.60;1.40;;;;;;;;;;5109587;28;20484;-71
2022/06/20 10:11:20;;;;;;;1.42;1.20;;;;;;;;;;5115999;28;20032;-69
2022/06/20 10:13:50;;;;;;;2.80;1.40;;;;;;;;;;5108309;28;20019;-69
2022/06/20 10:16:22;;;;;;;2.08;1.42;;;;;;;;;;5109605;28;20020;-69
2022/06/20 10:19:00;;;;;;;4.20;1.55;;;;;;;;;;5109859;28;20019;-70
2022/06/20 10:21:27;;;;;;;1.70;1.40;;;;;;;;;;5109834;28;20416;-69
2022/06/20 10:24:16;;;;;;;3.47;1.42;;;;;;;;;;5109413;28;20032;-69
2022/06/20 10:27:17;;;;;;;2.13;1.38;;;;;;;;;;5109744;28;20027;-70
2022/06/20 10:29:46;;;;;;;1.85;1.20;;;;;;;;;;5085323;28;20060;-70
2022/06/20 10:32:18;;;;;;;3.05;1.65;;;;;;;;;;5086759;28;20032;-70
2022/06/20 10:34:50;;;;;;;2.92;1.45;;;;;;;;;;5122268;28;20020;-69
2022/06/20 10:37:19;;;;;;;3.08;1.67;;;;;;;;;;5094613;28;20097;-68
2022/06/20 10:39:49;;;;;;;2.58;1.30;;;;;;;;;;5087287;28;20024;-68
2022/06/20 10:42:48;;;;;;;2.00;1.27;;;;;;;;;;5086505;28;20028;-68
2022/06/20 10:45:32;;;;;;;1.80;1.40;;;;;;;;;;5086904;28;20097;-68
2022/06/20 10:48:07;;;;;;;3.20;1.55;;;;;;;;;;5107376;28;20525;-70
2022/06/20 10:50:39;;;;;;;2.78;1.60;;;;;;;;;;5127989;28;20024;-68
2022/06/20 10:53:21;;;;;;;2.88;1.38;;;;;;;;;;5126847;28;20031;-69
2022/06/20 10:55:47;;;;;;;1.63;1.33;;;;;;;;;;5087073;28;20035;-67
2022/06/20 10:58:31;;;;;;;3.10;1.65;;;;;;;;;;5107892;28;20036;-68
2022/06/20 11:01:19;;;;;;;2.55;1.50;;;;;;;;;;5116272;28;20019;-67
2022/06/20 11:03:59;;;;;;;1.77;1.27;;;;;;;;;;5114652;28;20032;-68
2022/06/20 11:06:28;;;;;;;1.95;1.30;;;;;;;;;;5096722;28;20047;-69
2022/06/20 11:09:01;;;;;;;2.95;1.50;;;;;;;;;;5099235;28;20055;-69
2022/06/20 11:11:37;;;;;;;2.92;1.50;;;;;;;;;;5095044;28;20032;-70
2022/06/20 11:14:05;;;;;;;2.47;1.35;;;;;;;;;;5086571;28;20076;-71
2022/06/20 11:16:38;;;;;;;1.98;1.35;;;;;;;;;;5095117;28;20023;-69
2022/06/20 11:19:04;;;;;;;;;;;;;;;;;;5094052;28;20032;-68
2022/06/20 11:21:49;;;;;;;4.07;1.48;;;;;;;;;;5092704;28;19908;-68
2022/06/20 11:24:33;;;;;;;4.13;1.75;;;;;;;;;;5102538;28;20032;-70
2022/06/20 11:27:05;;;;;;;2.58;1.50;;;;;;;;;;5085215;28;20033;-71
2022/06/20 11:29:32;;;;;;;4.68;1.38;;;;;;;;;;5071744;28;20107;-69
2022/06/20 11:32:01;;;;;;;2.65;1.40;;;;;;;;;;5073145;28;20029;-69
2022/06/20 11:34:56;;;;;;;2.00;1.50;;;;;;;;;;5076183;28;20021;-70
2022/06/20 11:37:22;;;;;;;3.13;1.80;;;;;;;;;;5068614;28;20028;-70
2022/06/20 11:40:09;;;;;;;2.55;1.63;;;;;;;;;;5071488;28;20508;-69
2022/06/20 11:43:01;;;;;;;2.85;1.80;;;;;;;;;;5072562;28;20028;-69
2022/06/20 11:45:46;;;;;;;2.85;1.90;;;;;;;;;;5072770;28;20021;-69
2022/06/20 11:48:35;;;;;;;4.88;1.50;;;;;;;;;;5073047;28;20082;-69
2022/06/20 11:51:37;;;;;;;3.53;1.83;;;;;;;;;;5076418;28;20127;-69
2022/06/20 11:54:03;;;;;;;3.13;1.80;;;;;;;;;;5036280;28;20105;-68
2022/06/20 11:56:35;;;;;;;2.42;1.27;;;;;;;;;;5066163;28;20437;-69
2022/06/20 11:59:07;;;;;;;3.80;1.70;;;;;;;;;;5083776;28;20075;-69
2022/06/20 12:01:33;;;;;;;;;;;;;;;;;;5075064;28;20028;-70
2022/06/20 12:04:04;;;;;;;2.92;1.60;;;;;;;;;;5073323;28;20284;-69
2022/06/20 12:06:38;;;;;;;2.63;1.58;;;;;;;;;;5073453;28;20031;-69
2022/06/20 12:09:07;;;;;;;5.88;2.00;;;;;;;;;;5074552;28;20025;-70
2022/06/20 12:11:36;;;;;;;3.35;1.67;;;;;;;;;;5074869;28;20021;-69
2022/06/20 12:14:17;;;;;;;2.83;1.55;;;;;;;;;;5094241;28;20031;-70
2022/06/20 12:16:43;;;;;;;2.97;1.50;;;;;;;;;;5094666;28;20573;-69
2022/06/20 12:25:02;;;;;;;2.35;1.20;;;;;;;;;;5094471;28;20065;-69
2022/06/20 12:27:28;;;;;;;2.67;1.63;;;;;;;;;;5082035;28;20052;-68
2022/06/20 12:29:54;;;;;;;3.53;1.50;;;;;;;;;;5074283;28;20122;-69
2022/06/20 12:32:23;;;;;;;3.42;1.70;;;;;;;;;;5085438;28;20074;-68
2022/06/20 12:35:05;;;;;;;3.35;2.47;;;;;;;;;;5093864;28;20357;-68
2022/06/20 12:37:46;;;;;;;1.67;1.20;;;;;;;;;;5092984;28;20020;-69
2022/06/20 12:40:12;;;;;;;1.80;1.20;;;;;;;;;;5094754;28;20024;-69
2022/06/20 12:42:38;;;;;;;1.67;1.13;;;;;;;;;;5092556;28;20400;-69
2022/06/20 12:45:07;;;;;;;3.67;1.70;;;;;;;;;;5092893;28;20112;-70
2022/06/20 12:47:53;;;;;;;4.97;1.38;;;;;;;;;;5093838;28;20473;-69
2022/06/20 12:50:19;;;;;;;3.30;1.67;;;;;;;;;;5094011;28;20392;-70
2022/06/20 12:52:57;;;;;;;2.03;1.30;;;;;;;;;;5093954;28;20028;-69
2022/06/20 12:55:42;;;;;;;2.85;1.63;;;;;;;;;;5093575;28;20050;-69
2022/06/20 12:58:11;;;;;;;1.60;1.40;;;;;;;;;;5094046;28;20507;-69
2022/06/20 13:00:40;;;;;;;2.83;1.40;;;;;;;;;;5092595;28;20028;-69
2022/06/20 13:03:16;;;;;;;2.13;1.38;;;;;;;;;;5093438;28;20109;-70
2022/06/20 13:05:48;;;;;;;4.25;1.45;;;;;;;;;;5094025;28;20031;-68
2022/06/20 13:08:17;;;;;;;2.90;1.30;;;;;;;;;;5093530;28;20024;-69
2022/06/20 13:10:46;;;;;;;2.92;1.60;;;;;;;;;;5093755;28;20028;-69
2022/06/20 13:13:39;;;;;;;3.47;1.83;;;;;;;;;;5093717;28;20046;-69
2022/06/20 13:16:24;;;;;;;2.78;1.70;;;;;;;;;;5092246;28;20036;-69
2022/06/20 13:19:01;;;;;;;2.25;1.45;;;;;;;;;;5093252;28;20464;-70
2022/06/20 13:21:46;;;;;;;3.10;1.48;;;;;;;;;;5093693;28;20045;-70
2022/06/20 13:24:21;;;;;;;3.38;1.73;;;;;;;;;;5093262;28;20039;-70
2022/06/20 13:26:53;;;;;;;6.07;1.60;;;;;;;;;;5093500;28;20028;-71
2022/06/20 13:29:36;;;;;;;2.10;1.40;;;;;;;;;;5093219;28;20031;-70
2022/06/20 13:32:31;;;;;;;5.20;2.25;;;;;;;;;;5093419;28;20065;-72
2022/06/20 13:35:03;;;;;;;2.83;1.63;;;;;;;;;;5088512;28;20036;-70
2022/06/20 13:37:29;;;;;;;;;;;;;;;;;;5093622;28;20637;-71
2022/06/20 13:40:13;;;;;;;1.67;1.42;;;;;;;;;;5093470;28;19957;-71
2022/06/20 13:43:02;;;;;;;2.97;1.67;;;;;;;;;;5074280;28;20484;-72
2022/06/20 13:45:32;;;;;;;2.88;1.63;;;;;;;;;;5061643;28;20563;-72
2022/06/20 13:48:17;;;;;;;5.30;1.90;;;;;;;;;;5087307;28;20469;-71
2022/06/20 13:50:52;;;;;;;3.05;1.42;;;;;;;;;;5071993;28;20068;-71
2022/06/20 13:53:27;;;;;;;2.28;1.42;;;;;;;;;;5072142;28;20020;-71
2022/06/20 13:56:06;;;;;;;1.58;1.15;;;;;;;;;;5072182;28;20024;-71
2022/06/20 13:58:44;;;;;;;3.60;1.45;;;;;;;;;;5072403;28;20017;-70
2022/06/20 14:01:13;;;;;;;2.20;1.30;;;;;;;;;;5073113;28;20380;-71
2022/06/20 14:03:46;;;;;;;2.22;1.60;;;;;;;;;;5072871;28;20392;-70
2022/06/20 14:06:14;;;;;;;3.65;1.30;;;;;;;;;;5072612;28;20099;-70
2022/06/20 14:08:45;;;;;;;3.22;1.42;;;;;;;;;;5072963;28;20381;-69
2022/06/20 14:11:32;;;;;;;2.50;1.50;;;;;;;;;;5072549;28;20060;-69
2022/06/20 14:13:59;;;;;;;2.25;1.30;;;;;;;;;;5072752;28;20099;-69
2022/06/20 14:16:31;;;;;;;3.22;1.65;;;;;;;;;;5072998;28;20024;-69
2022/06/20 14:19:21;;;;;;;4.00;1.60;;;;;;;;;;5072479;28;20020;-69
2022/06/20 14:21:56;;;;;;;3.03;1.40;;;;;;;;;;5069955;28;20094;-69
2022/06/20 14:24:29;;;;;;;3.28;1.83;;;;;;;;;;5072653;28;20036;-70
2022/06/20 14:27:01;;;;;;;2.55;1.63;;;;;;;;;;5072660;28;20108;-68
2022/06/20 14:29:29;;;;;;;2.03;1.30;;;;;;;;;;5088693;28;20151;-69
2022/06/20 14:31:55;;;;;;;5.53;1.60;;;;;;;;;;5076375;28;20029;-70
2022/06/20 14:34:31;;;;;;;2.67;1.48;;;;;;;;;;5075343;28;20031;-71
2022/06/20 14:37:02;;;;;;;2.15;1.38;;;;;;;;;;5075629;28;20099;-69
2022/06/20 14:39:29;;;;;;;2.13;1.30;;;;;;;;;;5076020;28;20043;-69
2022/06/20 14:41:55;;;;;;;4.22;1.30;;;;;;;;;;5076231;28;20033;-70
2022/06/20 14:44:27;;;;;;;3.25;1.30;;;;;;;;;;5075875;28;20048;-70
2022/06/20 14:46:59;;;;;;;3.38;1.83;;;;;;;;;;5075748;28;20046;-70
2022/06/20 14:49:27;;;;;;;2.40;1.40;;;;;;;;;;5076186;28;20020;-70
2022/06/20 14:51:56;;;;;;;1.83;1.48;;;;;;;;;;5091531;28;20070;-69
2022/06/20 14:54:28;;;;;;;2.50;1.27;;;;;;;;;;5075767;28;20121;-69
2022/06/20 14:57:00;;;;;;;1.80;1.38;;;;;;;;;;5091578;28;20059;-69
2022/06/20 14:59:32;;;;;;;3.53;1.50;;;;;;;;;;5076180;28;20021;-69
2022/06/20 15:01:58;;;;;;;2.97;1.77;;;;;;;;;;5075503;28;20531;-69
2022/06/20 15:04:25;;;;;;;2.47;1.55;;;;;;;;;;5075911;28;20477;-69
2022/06/20 15:06:57;;;;;;;3.60;1.40;;;;;;;;;;5075818;28;20043;-70
2022/06/20 15:09:23;;;;;;;4.60;1.65;;;;;;;;;;5075423;28;20056;-70
2022/06/20 15:12:08;;;;;;;3.35;1.90;;;;;;;;;;5075636;28;20021;-70
2022/06/20 15:14:38;;;;;;;2.33;1.77;;;;;;;;;;5075239;28;20029;-71
2022/06/20 15:17:11;;;;;;;3.35;1.80;;;;;;;;;;5075640;28;20031;-72
2022/06/20 15:19:46;;;;;;;3.22;1.77;;;;;;;;;;5075795;28;20387;-70
2022/06/20 15:22:24;;;;;;;1.70;1.40;;;;;;;;;;5075238;28;20020;-70
2022/06/20 15:25:13;;;;;;;2.05;1.35;;;;;;;;;;5091207;28;20036;-70
2022/06/20 15:27:43;;;;;;;3.20;1.63;;;;;;;;;;5072565;28;20036;-71
2022/06/20 15:30:27;;;;;;;3.08;1.50;;;;;;;;;;5075009;28;20021;-71
2022/06/20 15:32:55;;;;;;;1.73;1.33;;;;;;;;;;5075311;28;20028;-70
2022/06/20 15:38:20;;;;;;;3.45;1.77;;;;;;;;;;5075749;28;20033;-70
2022/06/20 15:40:51;;;;;;;3.25;1.67;;;;;;;;;;5075096;28;20036;-71
2022/06/20 15:43:25;;;;;;;2.15;1.35;;;;;;;;;;5074591;28;20175;-71
2022/06/20 15:45:53;;;;;;;3.88;2.22;;;;;;;;;;5075188;28;20024;-71
2022/06/20 15:48:26;;;;;;;1.40;1.20;;;;;;;;;;5075051;28;20031;-71
2022/06/20 15:51:07;;;;;;;2.30;1.30;;;;;;;;;;5074963;28;20024;-71
2022/06/20 15:53:37;;;;;;;2.17;1.20;;;;;;;;;;5090655;28;20078;-71
2022/06/20 15:56:18;;;;;;;8.05;1.50;;;;;;;;;;5075303;28;20254;-71
2022/06/20 15:58:44;;;;;;;2.08;1.25;;;;;;;;;;5074647;28;20056;-70
2022/06/20 16:01:25;;;;;;;2.92;1.83;;;;;;;;;;5074790;28;20021;-70
2022/06/20 16:03:57;;;;;;;1.93;1.50;;;;;;;;;;5074313;28;20060;-70
2022/06/20 16:06:32;;;;;;;2.75;1.50;;;;;;;;;;5074617;28;20101;-69
2022/06/20 16:09:02;;;;;;;2.60;1.55;;;;;;;;;;5074622;28;20124;-70
2022/06/20 16:11:39;;;;;;;5.28;1.92;;;;;;;;;;5074395;28;20365;-70
2022/06/20 16:14:07;;;;;;;3.03;1.70;;;;;;;;;;5074444;28;20503;-70
2022/06/20 16:16:34;;;;;;;3.92;1.95;;;;;;;;;;5074350;28;20059;-70
2022/06/20 16:19:04;;;;;;;2.40;1.80;;;;;;;;;;5074172;28;20021;-70
2022/06/20 16:21:32;;;;;;;4.32;1.65;;;;;;;;;;5074654;28;20021;-70
2022/06/20 16:23:58;;;;;;;4.60;2.00;;;;;;;;;;5074281;28;20040;-70
2022/06/20 16:26:30;;;;;;;2.65;2.03;;;;;;;;;;5073901;28;20500;-71
2022/06/20 16:29:08;;;;;;;3.80;1.65;;;;;;;;;;5074281;28;20444;-71
2022/06/20 16:31:45;;;;;;;2.22;1.48;;;;;;;;;;5074592;28;20049;-71
2022/06/20 16:34:30;;;;;;;1.90;1.50;;;;;;;;;;5074151;28;20020;-71
2022/06/20 16:37:06;;;;;;;2.42;1.80;;;;;;;;;;5074128;28;20514;-71
2022/06/20 16:39:34;;;;;;;5.05;2.17;;;;;;;;;;5073866;28;20055;-71
2022/06/20 16:42:01;;;;;;;6.15;2.13;;;;;;;;;;5074065;28;20098;-71
2022/06/20 16:44:39;;;;;;;3.08;1.90;;;;;;;;;;5073842;28;20052;-71
2022/06/20 16:47:44;;;;;;;3.13;1.80;;;;;;;;;;5073583;28;20029;-72
2022/06/20 16:50:28;;;;;;;2.10;1.35;;;;;;;;;;5051944;28;20032;-70
2022/06/20 16:53:05;;;;;;;3.47;1.70;;;;;;;;;;5051148;28;20029;-70
2022/06/20 16:55:35;;;;;;;4.38;1.90;;;;;;;;;;5066526;28;20041;-70
2022/06/20 16:58:05;;;;;;;4.10;1.98;;;;;;;;;;5073817;28;20040;-70
2022/06/20 17:00:37;;;;;;;3.38;1.77;;;;;;;;;;5073302;28;20032;-70